Fish Play — WDH8753 — position and weather

sailwx.info

Track history (hours):
 
Tides and Currents Weather Stations Pressure Air Temp Water Temp Dewpoint Dewpoint Depression Visibility Wind Speed Wind Dir Waves Ship Positions

Fish Play

Owner: Fish Play Charters LLC, Federalsburg, MD. More information available from US FCC via Universal Licensing System and Coast Guard Vessel Documentation Center.

Last reported at 2018-Apr-27 01:10 UTC. Time now 2018-Apr-27 05:04 UTC.
Position N 37°52' W 122°19'.

Length 18 m.

Type: Passenger vessel. MMSI: 338208626.

Date/timePositionNaut miles runAvg speedWind from/ knotsBaromVisibWave heightAir tempDewpointWater temp
2018-Apr-27 01:10N 37°52' W 122°19'0 1.1
2018-Apr-27 01:00N 37°52' W 122°19'510.8
2018-Apr-27 00:30N 37°48' W 122°24'511.0
2018-Apr-27 00:00N 37°52' W 122°19'611.3
2018-Apr-26 23:31N 37°48' W 122°24'611.1
2018-Apr-26 23:00N 37°52' W 122°19'0 0.0
2018-Apr-26 16:44N 37°52' W 122°19'1 4.9
2018-Apr-26 16:30N 37°51' W 122°20'4 8.7
2018-Apr-26 16:00N 37°48' W 122°24'510.9
2018-Apr-26 15:30N 37°52' W 122°19'611.2
2018-Apr-26 15:00N 37°48' W 122°24'611.1
2018-Apr-26 14:30N 37°52' W 122°19'0 0.0
2018-Apr-26 14:00N 37°52' W 122°19'0 0.0
2018-Apr-26 01:04N 37°52' W 122°19'0 3.3
2018-Apr-26 01:00N 37°52' W 122°19'511.0
2018-Apr-26 00:30N 37°48' W 122°24'611.1
2018-Apr-26 00:00N 37°52' W 122°19'611.1
2018-Apr-25 23:30N 37°48' W 122°24'610.8
2018-Apr-25 23:00N 37°52' W 122°19'612.0
2018-Apr-25 22:30N 37°52' W 122°26'2 3.0
2018-Apr-25 22:00N 37°51' W 122°28'3 5.4
2018-Apr-25 21:30N 37°49' W 122°28'5 9.1
2018-Apr-25 21:00N 37°53' W 122°25'2 3.2
2018-Apr-25 20:30N 37°52' W 122°27'510.0
2018-Apr-25 20:00N 37°51' W 122°21'2 3.6
2018-Apr-25 19:30N 37°52' W 122°19'0 0.0
2018-Apr-25 16:39N 37°52' W 122°19'0 2.4
2018-Apr-25 16:30N 37°52' W 122°19'5 9.5
2018-Apr-25 16:00N 37°48' W 122°23'510.1
2018-Apr-25 15:30N 37°52' W 122°19'611.4
2018-Apr-25 15:01N 37°48' W 122°24'611.1
2018-Apr-25 14:30N 37°52' W 122°19'0 0.0
2018-Apr-25 14:00N 37°52' W 122°19'0 0.0
2018-Apr-25 13:30N 37°52' W 122°19'0 0.0
2018-Apr-25 01:10N 37°52' W 122°19'0 0.9
2018-Apr-25 01:00N 37°52' W 122°19'611.1
2018-Apr-25 00:30N 37°48' W 122°24'611.2
2018-Apr-25 00:00N 37°52' W 122°19'611.2
2018-Apr-24 23:30N 37°48' W 122°24'611.1
2018-Apr-24 23:00N 37°52' W 122°19'0 0.0
2018-Apr-24 22:30N 37°52' W 122°19'0 0.0
2018-Apr-24 18:12N 37°52' W 122°19'1 4.2
2018-Apr-24 18:00N 37°51' W 122°20'1 2.4
2018-Apr-24 17:30N 37°50' W 122°19'0 0.0
2018-Apr-24 17:00N 37°50' W 122°19'2 3.3
2018-Apr-24 16:30N 37°52' W 122°19'611.4
2018-Apr-24 16:00N 37°48' W 122°24'611.0
2018-Apr-24 15:30N 37°52' W 122°19'611.2
2018-Apr-24 15:00N 37°48' W 122°24'611.1
2018-Apr-24 14:30N 37°52' W 122°19'0 0.0
2018-Apr-24 14:00N 37°52' W 122°19'0 0.0
2018-Apr-24 03:27N 37°52' W 122°19'4 9.7
2018-Apr-24 03:00N 37°52' W 122°24'2 3.9
2018-Apr-24 02:30N 37°53' W 122°26'1 1.7
2018-Apr-24 02:00N 37°52' W 122°26'0 0.9
2018-Apr-24 01:30N 37°52' W 122°25'510.6
2018-Apr-24 01:01N 37°52' W 122°19'611.1
2018-Apr-24 00:30N 37°48' W 122°24'611.1
2018-Apr-24 00:00N 37°52' W 122°19'611.2
2018-Apr-23 23:31N 37°48' W 122°24'6 0.8
2018-Apr-23 16:41N 37°52' W 122°19'1 6.3
2018-Apr-23 16:30N 37°52' W 122°20'4 8.7
2018-Apr-23 16:01N 37°48' W 122°24'510.6
2018-Apr-23 15:30N 37°52' W 122°19'611.3
2018-Apr-23 15:00N 37°48' W 122°24'611.1
2018-Apr-23 14:30N 37°52' W 122°19'0 0.0
2018-Apr-23 14:00N 37°52' W 122°19'  
2018-Apr-21 01:21N 37°52' W 122°19'0 0.0
2018-Apr-21 01:01N 37°52' W 122°19'611.1
2018-Apr-21 00:30N 37°48' W 122°24'611.1
2018-Apr-21 00:00N 37°52' W 122°19'611.2
2018-Apr-20 23:31N 37°48' W 122°24'611.1
2018-Apr-20 23:00N 37°52' W 122°19'0 0.0
2018-Apr-20 22:30N 37°52' W 122°19'5 9.5
2018-Apr-20 22:00N 37°49' W 122°23'3 5.6
2018-Apr-20 21:30N 37°51' W 122°25'2 4.5
2018-Apr-20 21:00N 37°52' W 122°27'0 0.2
2018-Apr-20 20:30N 37°52' W 122°27'3 6.3
2018-Apr-20 20:00N 37°49' W 122°28'4 7.0
2018-Apr-20 19:30N 37°48' W 122°24'0 0.7
2018-Apr-20 19:00N 37°48' W 122°24'0 0.0
2018-Apr-20 18:30N 37°48' W 122°24'4 7.7
2018-Apr-20 18:00N 37°51' W 122°21'2 1.4
2018-Apr-20 16:36N 37°52' W 122°19'0 2.1
2018-Apr-20 16:30N 37°52' W 122°19'510.4
2018-Apr-20 16:00N 37°48' W 122°24'510.5
2018-Apr-20 15:30N 37°52' W 122°19'511.0
2018-Apr-20 15:00N 37°48' W 122°24'611.1
2018-Apr-20 14:30N 37°52' W 122°19'0 0.0
2018-Apr-20 01:11N 37°52' W 122°19'0 1.0
2018-Apr-20 01:00N 37°52' W 122°19'611.2
2018-Apr-20 00:31N 37°48' W 122°24'611.1
2018-Apr-20 00:00N 37°52' W 122°19'611.2
2018-Apr-19 23:30N 37°48' W 122°24'611.1
2018-Apr-19 23:00N 37°52' W 122°19'0 0.0
2018-Apr-19 22:31N 37°52' W 122°19'0 0.0
2018-Apr-19 17:53N 37°52' W 122°19'1 3.9
2018-Apr-19 17:30N 37°50' W 122°19'0 0.3
2018-Apr-19 17:00N 37°50' W 122°19'1 2.0
2018-Apr-19 16:30N 37°50' W 122°20'4 7.2
2018-Apr-19 16:00N 37°48' W 122°24'510.9
2018-Apr-19 15:30N 37°52' W 122°19'611.2
2018-Apr-19 15:00N 37°48' W 122°24'610.7
2018-Apr-19 14:29N 37°52' W 122°19'0 0.0
2018-Apr-19 14:00N 37°52' W 122°19'0 0.0
2018-Apr-19 01:08N 37°52' W 122°19'1 4.5
2018-Apr-19 01:01N 37°52' W 122°20'5 9.2
2018-Apr-19 00:30N 37°48' W 122°23'510.2
2018-Apr-19 00:00N 37°52' W 122°19'611.2
2018-Apr-18 23:30N 37°48' W 122°24'611.2
2018-Apr-18 23:00N 37°52' W 122°19'0 0.0
2018-Apr-18 16:36N 37°52' W 122°19'0 3.1
2018-Apr-18 16:30N 37°52' W 122°19'510.7
2018-Apr-18 16:00N 37°48' W 122°24'611.2
2018-Apr-18 15:30N 37°52' W 122°19'611.1
2018-Apr-18 15:00N 37°48' W 122°24'611.2
2018-Apr-18 14:30N 37°52' W 122°19'0 0.0
2018-Apr-18 14:00N 37°52' W 122°19'0 0.0
2018-Apr-18 01:05N 37°52' W 122°19'0 2.9
2018-Apr-18 01:01N 37°52' W 122°19'510.3
2018-Apr-18 00:30N 37°48' W 122°23'510.4
2018-Apr-18 00:00N 37°52' W 122°19'611.0
2018-Apr-17 23:30N 37°48' W 122°24'611.1
2018-Apr-17 23:00N 37°52' W 122°19'0 0.0
2018-Apr-17 16:39N 37°52' W 122°19'1 6.9
2018-Apr-17 16:30N 37°52' W 122°20'5 9.1
2018-Apr-17 16:00N 37°48' W 122°24'510.9
2018-Apr-17 15:30N 37°52' W 122°19'611.2
2018-Apr-17 15:00N 37°48' W 122°24'611.1
2018-Apr-17 14:30N 37°52' W 122°19'0 0.0
2018-Apr-17 14:01N 37°52' W 122°19'  
Track history (hours):
 
Tides and Currents Weather Stations Pressure Air Temp Water Temp Dewpoint Dewpoint Depression Visibility Wind Speed Wind Dir Waves Ship Positions

Fish Play

Owner: Fish Play Charters LLC, Federalsburg, MD. More information available from US FCC via Universal Licensing System and Coast Guard Vessel Documentation Center.

Last reported at 2018-Apr-27 01:10 UTC. Time now 2018-Apr-27 05:04 UTC.
Position N 37°52' W 122°19'.

Length 18 m.

Type: Passenger vessel. MMSI: 338208626.

Date/timePositionNaut miles runAvg speedWind from/ knotsBaromVisibWave heightAir tempDewpointWater temp
2018-Apr-27 01:10N 37°52' W 122°19'0 1.1
2018-Apr-27 01:00N 37°52' W 122°19'510.8
2018-Apr-27 00:30N 37°48' W 122°24'511.0
2018-Apr-27 00:00N 37°52' W 122°19'611.3
2018-Apr-26 23:31N 37°48' W 122°24'611.1
2018-Apr-26 23:00N 37°52' W 122°19'0 0.0
2018-Apr-26 16:44N 37°52' W 122°19'1 4.9
2018-Apr-26 16:30N 37°51' W 122°20'4 8.7
2018-Apr-26 16:00N 37°48' W 122°24'510.9
2018-Apr-26 15:30N 37°52' W 122°19'611.2
2018-Apr-26 15:00N 37°48' W 122°24'611.1
2018-Apr-26 14:30N 37°52' W 122°19'0 0.0
2018-Apr-26 14:00N 37°52' W 122°19'0 0.0
2018-Apr-26 01:04N 37°52' W 122°19'0 3.3
2018-Apr-26 01:00N 37°52' W 122°19'511.0
2018-Apr-26 00:30N 37°48' W 122°24'611.1
2018-Apr-26 00:00N 37°52' W 122°19'611.1
2018-Apr-25 23:30N 37°48' W 122°24'610.8
2018-Apr-25 23:00N 37°52' W 122°19'612.0
2018-Apr-25 22:30N 37°52' W 122°26'2 3.0
2018-Apr-25 22:00N 37°51' W 122°28'3 5.4
2018-Apr-25 21:30N 37°49' W 122°28'5 9.1
2018-Apr-25 21:00N 37°53' W 122°25'2 3.2
2018-Apr-25 20:30N 37°52' W 122°27'510.0
2018-Apr-25 20:00N 37°51' W 122°21'2 3.6
2018-Apr-25 19:30N 37°52' W 122°19'0 0.0
2018-Apr-25 16:39N 37°52' W 122°19'0 2.4
2018-Apr-25 16:30N 37°52' W 122°19'5 9.5
2018-Apr-25 16:00N 37°48' W 122°23'510.1
2018-Apr-25 15:30N 37°52' W 122°19'611.4
2018-Apr-25 15:01N 37°48' W 122°24'611.1
2018-Apr-25 14:30N 37°52' W 122°19'0 0.0
2018-Apr-25 14:00N 37°52' W 122°19'0 0.0
2018-Apr-25 13:30N 37°52' W 122°19'0 0.0
2018-Apr-25 01:10N 37°52' W 122°19'0 0.9
2018-Apr-25 01:00N 37°52' W 122°19'611.1
2018-Apr-25 00:30N 37°48' W 122°24'611.2
2018-Apr-25 00:00N 37°52' W 122°19'611.2
2018-Apr-24 23:30N 37°48' W 122°24'611.1
2018-Apr-24 23:00N 37°52' W 122°19'0 0.0
2018-Apr-24 22:30N 37°52' W 122°19'0 0.0
2018-Apr-24 18:12N 37°52' W 122°19'1 4.2
2018-Apr-24 18:00N 37°51' W 122°20'1 2.4
2018-Apr-24 17:30N 37°50' W 122°19'0 0.0
2018-Apr-24 17:00N 37°50' W 122°19'2 3.3
2018-Apr-24 16:30N 37°52' W 122°19'611.4
2018-Apr-24 16:00N 37°48' W 122°24'611.0
2018-Apr-24 15:30N 37°52' W 122°19'611.2
2018-Apr-24 15:00N 37°48' W 122°24'611.1
2018-Apr-24 14:30N 37°52' W 122°19'0 0.0
2018-Apr-24 14:00N 37°52' W 122°19'0 0.0
2018-Apr-24 03:27N 37°52' W 122°19'4 9.7
2018-Apr-24 03:00N 37°52' W 122°24'2 3.9
2018-Apr-24 02:30N 37°53' W 122°26'1 1.7
2018-Apr-24 02:00N 37°52' W 122°26'0 0.9
2018-Apr-24 01:30N 37°52' W 122°25'510.6
2018-Apr-24 01:01N 37°52' W 122°19'611.1
2018-Apr-24 00:30N 37°48' W 122°24'611.1
2018-Apr-24 00:00N 37°52' W 122°19'611.2
2018-Apr-23 23:31N 37°48' W 122°24'6 0.8
2018-Apr-23 16:41N 37°52' W 122°19'1 6.3
2018-Apr-23 16:30N 37°52' W 122°20'4 8.7
2018-Apr-23 16:01N 37°48' W 122°24'510.6
2018-Apr-23 15:30N 37°52' W 122°19'611.3
2018-Apr-23 15:00N 37°48' W 122°24'611.1
2018-Apr-23 14:30N 37°52' W 122°19'0 0.0
2018-Apr-23 14:00N 37°52' W 122°19'  
2018-Apr-21 01:21N 37°52' W 122°19'0 0.0
2018-Apr-21 01:01N 37°52' W 122°19'611.1
2018-Apr-21 00:30N 37°48' W 122°24'611.1
2018-Apr-21 00:00N 37°52' W 122°19'611.2
2018-Apr-20 23:31N 37°48' W 122°24'611.1
2018-Apr-20 23:00N 37°52' W 122°19'0 0.0
2018-Apr-20 22:30N 37°52' W 122°19'5 9.5
2018-Apr-20 22:00N 37°49' W 122°23'3 5.6
2018-Apr-20 21:30N 37°51' W 122°25'2 4.5
2018-Apr-20 21:00N 37°52' W 122°27'0 0.2
2018-Apr-20 20:30N 37°52' W 122°27'3 6.3
2018-Apr-20 20:00N 37°49' W 122°28'4 7.0
2018-Apr-20 19:30N 37°48' W 122°24'0 0.7
2018-Apr-20 19:00N 37°48' W 122°24'0 0.0
2018-Apr-20 18:30N 37°48' W 122°24'4 7.7
2018-Apr-20 18:00N 37°51' W 122°21'2 1.4
2018-Apr-20 16:36N 37°52' W 122°19'0 2.1
2018-Apr-20 16:30N 37°52' W 122°19'510.4
2018-Apr-20 16:00N 37°48' W 122°24'510.5
2018-Apr-20 15:30N 37°52' W 122°19'511.0
2018-Apr-20 15:00N 37°48' W 122°24'611.1
2018-Apr-20 14:30N 37°52' W 122°19'0 0.0
2018-Apr-20 01:11N 37°52' W 122°19'0 1.0
2018-Apr-20 01:00N 37°52' W 122°19'611.2
2018-Apr-20 00:31N 37°48' W 122°24'611.1
2018-Apr-20 00:00N 37°52' W 122°19'611.2
2018-Apr-19 23:30N 37°48' W 122°24'611.1
2018-Apr-19 23:00N 37°52' W 122°19'0 0.0
2018-Apr-19 22:31N 37°52' W 122°19'0 0.0
2018-Apr-19 17:53N 37°52' W 122°19'1 3.9
2018-Apr-19 17:30N 37°50' W 122°19'0 0.3
2018-Apr-19 17:00N 37°50' W 122°19'1 2.0
2018-Apr-19 16:30N 37°50' W 122°20'4 7.2
2018-Apr-19 16:00N 37°48' W 122°24'510.9
2018-Apr-19 15:30N 37°52' W 122°19'611.2
2018-Apr-19 15:00N 37°48' W 122°24'610.7
2018-Apr-19 14:29N 37°52' W 122°19'0 0.0
2018-Apr-19 14:00N 37°52' W 122°19'0 0.0
2018-Apr-19 01:08N 37°52' W 122°19'1 4.5
2018-Apr-19 01:01N 37°52' W 122°20'5 9.2
2018-Apr-19 00:30N 37°48' W 122°23'510.2
2018-Apr-19 00:00N 37°52' W 122°19'611.2
2018-Apr-18 23:30N 37°48' W 122°24'611.2
2018-Apr-18 23:00N 37°52' W 122°19'0 0.0
2018-Apr-18 16:36N 37°52' W 122°19'0 3.1
2018-Apr-18 16:30N 37°52' W 122°19'510.7
2018-Apr-18 16:00N 37°48' W 122°24'611.2
2018-Apr-18 15:30N 37°52' W 122°19'611.1
2018-Apr-18 15:00N 37°48' W 122°24'611.2
2018-Apr-18 14:30N 37°52' W 122°19'0 0.0
2018-Apr-18 14:00N 37°52' W 122°19'0 0.0
2018-Apr-18 01:05N 37°52' W 122°19'0 2.9
2018-Apr-18 01:01N 37°52' W 122°19'510.3
2018-Apr-18 00:30N 37°48' W 122°23'510.4
2018-Apr-18 00:00N 37°52' W 122°19'611.0
2018-Apr-17 23:30N 37°48' W 122°24'611.1
2018-Apr-17 23:00N 37°52' W 122°19'0 0.0
2018-Apr-17 16:39N 37°52' W 122°19'1 6.9
2018-Apr-17 16:30N 37°52' W 122°20'5 9.1
2018-Apr-17 16:00N 37°48' W 122°24'510.9
2018-Apr-17 15:30N 37°52' W 122°19'611.2
2018-Apr-17 15:00N 37°48' W 122°24'611.1
2018-Apr-17 14:30N 37°52' W 122°19'0 0.0
2018-Apr-17 14:01N 37°52' W 122°19'  

Dump ship's entire track history